Time;durP1;ratioP1;P1;durP2;ratioP2;P2;SDS_P1;SDS_P2;PMS_P1;PMS_P2;Temp;Humidity;BMP_temperature;BMP_pressure;BME280_temperature;BME280_humidity;BME280_pressure;Samples;Min_cycle;Max_cycle;Signal;HPM_P1;HPM_P2
2021/03/27 00:00:56;;;;;;;30.23;19.40;;;7.30;88.80;;;;;;2016417;29;20056;-72
2021/03/27 00:02:19;;;;;;;27.13;19.23;;;7.30;88.80;;;;;;2016666;29;20045;-71
2021/03/27 00:03:26;;;;;;;28.38;19.15;;;7.20;88.90;;;;;;2016400;29;20029;-71
2021/03/27 00:04:56;;;;;;;27.83;19.17;;;7.30;89.00;;;;;;2016380;29;20040;-71
2021/03/27 00:06:04;;;;;;;26.85;18.27;;;7.20;89.00;;;;;;2015733;29;20416;-70
2021/03/27 00:07:42;;;;;;;27.40;19.23;;;7.20;89.10;;;;;;2015768;29;20476;-70
2021/03/27 00:08:56;;;;;;;28.55;19.27;;;7.20;89.10;;;;;;2015844;29;20605;-70
2021/03/27 00:10:16;;;;;;;28.70;19.23;;;7.20;89.10;;;;;;2015969;29;20085;-71
2021/03/27 00:11:58;;;;;;;26.77;19.30;;;7.20;89.00;;;;;;2010710;29;20041;-70
2021/03/27 00:13:21;;;;;;;30.20;20.40;;;7.10;88.90;;;;;;2016668;29;20036;-70
2021/03/27 00:14:32;;;;;;;28.92;19.92;;;7.10;89.00;;;;;;2016201;29;20036;-72
2021/03/27 00:15:40;;;;;;;27.95;19.20;;;7.20;89.00;;;;;;2009793;29;20353;-72
2021/03/27 00:17:03;;;;;;;27.85;19.73;;;7.10;89.10;;;;;;2009089;29;20073;-72
2021/03/27 00:18:17;;;;;;;26.27;18.70;;;7.10;89.20;;;;;;2016070;29;20037;-71
2021/03/27 00:19:47;;;;;;;26.98;19.25;;;7.10;89.40;;;;;;2015388;29;20053;-72
2021/03/27 00:21:09;;;;;;;30.02;21.15;;;7.10;89.40;;;;;;2014567;29;20060;-71
2021/03/27 00:22:25;;;;;;;31.65;21.35;;;7.10;89.60;;;;;;2016548;29;20064;-72
2021/03/27 00:23:28;;;;;;;32.10;21.83;;;7.10;89.80;;;;;;2016386;29;20151;-72
2021/03/27 00:24:52;;;;;;;32.70;22.83;;;7.00;89.80;;;;;;2016454;29;20037;-71
2021/03/27 00:25:58;;;;;;;37.10;24.50;;;7.00;89.80;;;;;;2016308;29;20095;-72
2021/03/27 00:27:10;;;;;;;37.17;24.55;;;7.00;90.00;;;;;;2016444;29;20029;-72
2021/03/27 00:28:17;;;;;;;33.83;23.77;;;7.00;90.00;;;;;;2015709;29;20534;-72
2021/03/27 00:29:28;;;;;;;36.08;23.52;;;7.00;90.10;;;;;;2015444;29;20063;-72
2021/03/27 00:30:44;;;;;;;33.50;22.80;;;7.00;90.10;;;;;;2016388;29;20025;-72
2021/03/27 00:31:50;;;;;;;33.83;23.50;;;7.00;90.20;;;;;;2016328;29;20495;-72
2021/03/27 00:32:54;;;;;;;32.67;23.48;;;6.90;90.20;;;;;;2016321;29;20029;-71
2021/03/27 00:34:00;;;;;;;31.52;22.25;;;6.90;90.30;;;;;;2016423;29;20025;-72
2021/03/27 00:35:05;;;;;;;32.47;22.63;;;7.00;90.30;;;;;;2016142;29;20465;-72
2021/03/27 00:36:33;;;;;;;31.80;22.27;;;6.90;90.40;;;;;;2016204;29;20029;-72
2021/03/27 00:37:35;;;;;;;32.75;23.10;;;6.90;90.40;;;;;;2016204;29;20029;-71
2021/03/27 00:38:43;;;;;;;33.17;23.08;;;6.90;90.40;;;;;;2016003;29;20029;-72
2021/03/27 00:39:53;;;;;;;32.83;22.48;;;6.90;90.40;;;;;;2015914;29;20029;-72
2021/03/27 00:40:55;;;;;;;31.85;22.65;;;6.90;90.40;;;;;;2016399;29;20488;-72
2021/03/27 00:42:01;;;;;;;29.65;21.80;;;6.90;90.40;;;;;;2016223;29;20033;-72
2021/03/27 00:43:17;;;;;;;29.88;21.05;;;6.90;90.70;;;;;;2016272;29;20108;-72
2021/03/27 00:44:21;;;;;;;31.00;21.80;;;6.90;90.40;;;;;;2016317;29;20059;-72
2021/03/27 00:45:28;;;;;;;29.98;21.58;;;6.80;90.30;;;;;;2015734;29;20036;-72
2021/03/27 00:46:30;;;;;;;31.38;22.00;;;6.80;90.30;;;;;;2015734;29;20124;-72
2021/03/27 00:47:35;;;;;;;30.27;20.85;;;6.80;90.30;;;;;;2015641;29;20056;-71
2021/03/27 00:48:52;;;;;;;28.33;20.77;;;6.80;90.30;;;;;;2015640;29;20080;-72
2021/03/27 00:50:04;;;;;;;29.30;20.75;;;6.80;90.30;;;;;;2007302;29;20116;-71
2021/03/27 00:51:18;;;;;;;29.98;20.02;;;6.80;90.40;;;;;;2009357;29;20034;-71
2021/03/27 00:52:20;;;;;;;31.95;21.02;;;6.80;90.40;;;;;;2015547;29;20039;-71
2021/03/27 00:53:49;;;;;;;31.38;21.52;;;6.80;90.40;;;;;;2007942;29;20037;-71
2021/03/27 00:54:58;;;;;;;29.50;21.08;;;6.80;90.50;;;;;;2011214;29;20056;-70
2021/03/27 00:56:11;;;;;;;33.33;21.88;;;6.80;90.50;;;;;;2015449;29;20029;-71
2021/03/27 00:57:19;;;;;;;30.17;21.05;;;6.80;90.50;;;;;;2014656;29;20120;-71
2021/03/27 00:58:43;;;;;;;30.48;20.80;;;6.80;90.50;;;;;;2008738;29;20038;-71
2021/03/27 01:00:09;;;;;;;29.75;20.85;;;6.80;90.50;;;;;;2015361;29;20033;-71
2021/03/27 01:01:42;;;;;;;29.95;20.40;;;6.80;90.40;;;;;;2016031;29;20112;-71
2021/03/27 01:03:05;;;;;;;28.00;19.45;;;6.80;90.40;;;;;;2016108;29;20053;-71
2021/03/27 01:04:33;;;;;;;27.95;19.08;;;6.70;90.30;;;;;;2015972;29;20065;-71
2021/03/27 01:05:54;;;;;;;25.85;18.42;;;6.70;90.30;;;;;;2016000;29;20517;-71
2021/03/27 01:07:21;;;;;;;27.77;18.75;;;6.80;90.40;;;;;;2017938;29;20076;-71
2021/03/27 01:08:45;;;;;;;26.40;18.45;;;6.80;90.30;;;;;;2016150;29;20041;-71
2021/03/27 01:10:15;;;;;;;25.60;18.15;;;6.80;90.20;;;;;;2016106;29;20037;-71
2021/03/27 01:11:49;;;;;;;27.10;17.95;;;6.70;90.20;;;;;;2015676;29;20033;-71
2021/03/27 01:12:55;;;;;;;27.95;18.88;;;6.70;90.10;;;;;;2016016;29;20441;-71
2021/03/27 01:13:59;;;;;;;26.98;17.92;;;6.70;90.10;;;;;;2015274;29;20433;-71
2021/03/27 01:15:22;;;;;;;24.88;17.20;;;6.70;90.10;;;;;;2015357;29;20167;-71
2021/03/27 01:16:28;;;;;;;26.52;17.95;;;6.70;90.10;;;;;;2015290;29;20048;-71
2021/03/27 01:17:32;;;;;;;25.67;17.90;;;6.70;90.10;;;;;;2015393;29;20492;-71
2021/03/27 01:18:38;;;;;;;26.27;18.52;;;6.70;90.10;;;;;;2022852;29;20024;-71
2021/03/27 01:19:47;;;;;;;24.50;17.45;;;6.70;90.10;;;;;;2022005;29;20103;-71
2021/03/27 01:20:56;;;;;;;25.63;18.50;;;6.70;90.10;;;;;;2015901;29;20064;-71
2021/03/27 01:21:58;;;;;;;24.92;17.83;;;6.70;90.10;;;;;;2015959;29;20033;-71
2021/03/27 01:23:00;;;;;;;26.65;18.42;;;6.70;90.20;;;;;;2015926;29;20032;-71
2021/03/27 01:24:05;;;;;;;26.95;18.73;;;6.70;90.20;;;;;;2015824;29;20043;-71
2021/03/27 01:25:07;;;;;;;28.33;18.48;;;6.70;90.20;;;;;;2015767;29;20037;-71
2021/03/27 01:26:15;;;;;;;25.50;17.85;;;6.70;90.10;;;;;;2015824;29;20124;-71
2021/03/27 01:27:32;;;;;;;24.13;17.25;;;6.70;90.20;;;;;;2015480;29;20079;-70
2021/03/27 01:28:43;;;;;;;26.83;18.15;;;6.70;90.20;;;;;;2015343;29;20513;-70
2021/03/27 01:30:07;;;;;;;25.77;18.48;;;6.70;90.50;;;;;;2015429;29;20048;-71
2021/03/27 01:31:16;;;;;;;26.02;18.42;;;6.70;90.20;;;;;;2015834;29;20500;-71
2021/03/27 01:32:20;;;;;;;24.88;18.02;;;6.70;90.20;;;;;;2015909;29;20404;-71
2021/03/27 01:33:33;;;;;;;25.58;17.67;;;6.70;90.20;;;;;;2015847;29;20068;-70
2021/03/27 01:34:49;;;;;;;25.98;17.65;;;6.70;90.20;;;;;;2015791;29;20029;-70
2021/03/27 01:36:14;;;;;;;26.50;17.80;;;6.60;90.20;;;;;;2015146;29;20044;-71
2021/03/27 01:37:21;;;;;;;25.90;17.67;;;6.70;90.20;;;;;;2018136;29;20500;-70
2021/03/27 01:38:29;;;;;;;24.58;17.80;;;6.60;90.20;;;;;;2022086;29;20095;-71
2021/03/27 01:40:11;;;;;;;26.10;18.65;;;6.60;90.20;;;;;;2015442;29;20116;-70
2021/03/27 01:41:39;;;;;;;26.77;18.75;;;6.60;90.20;;;;;;2022660;29;20048;-70
2021/03/27 01:43:00;;;;;;;26.77;18.13;;;6.60;90.20;;;;;;2019731;29;20044;-70
2021/03/27 01:44:22;;;;;;;26.75;18.15;;;6.60;90.30;;;;;;2015874;29;20032;-70
2021/03/27 01:46:05;;;;;;;26.02;17.50;;;6.60;90.30;;;;;;2015937;29;20033;-71
2021/03/27 01:47:27;;;;;;;24.90;17.15;;;6.70;90.20;;;;;;2016313;29;20040;-71
2021/03/27 01:48:39;;;;;;;23.40;16.98;;;6.70;90.20;;;;;;2015892;29;20036;-71
2021/03/27 01:50:07;;;;;;;24.23;17.08;;;6.80;90.20;;;;;;2015593;29;20071;-69
2021/03/27 01:51:44;;;;;;;23.92;17.00;;;6.80;90.00;;;;;;2015878;29;20036;-69
2021/03/27 01:53:19;;;;;;;26.08;17.35;;;6.90;89.90;;;;;;2016071;29;20029;-70
2021/03/27 01:54:24;;;;;;;24.88;17.40;;;7.00;89.50;;;;;;2015876;29;20405;-70
2021/03/27 01:55:53;;;;;;;24.90;16.67;;;7.10;89.00;;;;;;2015339;29;20120;-70
2021/03/27 01:57:08;;;;;;;25.67;16.70;;;7.20;88.70;;;;;;2015620;29;20124;-70
2021/03/27 01:58:43;;;;;;;24.58;17.50;;;7.30;88.40;;;;;;2016213;29;20097;-69
2021/03/27 01:59:51;;;;;;;24.88;16.77;;;7.30;87.90;;;;;;2014609;29;20099;-71
2021/03/27 02:00:56;;;;;;;26.63;18.45;;;7.40;87.60;;;;;;2008598;29;20033;-71
2021/03/27 02:02:08;;;;;;;29.13;18.90;;;7.40;87.00;;;;;;2015389;29;20044;-71
2021/03/27 02:03:14;;;;;;;26.45;18.25;;;7.50;86.50;;;;;;2016130;29;20119;-71
2021/03/27 02:04:21;;;;;;;25.15;17.17;;;7.60;86.40;;;;;;2016083;29;20471;-71
2021/03/27 02:05:32;;;;;;;23.92;16.50;;;7.70;86.20;;;;;;2016264;29;20762;-71
2021/03/27 02:06:52;;;;;;;24.02;16.33;;;7.70;85.80;;;;;;2016394;29;20040;-71
2021/03/27 02:07:58;;;;;;;25.75;16.45;;;7.80;85.50;;;;;;2016129;29;20037;-71
2021/03/27 02:09:49;;;;;;;22.88;16.08;;;7.80;85.10;;;;;;2015774;29;20120;-71
2021/03/27 02:10:52;;;;;;;;;;;7.90;84.80;;;;;;2016326;29;20067;-72
2021/03/27 02:12:08;;;;;;;24.10;15.25;;;7.90;84.00;;;;;;2016130;28;19908;-71
2021/03/27 02:13:14;;;;;;;22.70;15.52;;;7.90;83.90;;;;;;2022636;29;20029;-71
2021/03/27 02:14:31;;;;;;;23.35;15.07;;;8.00;83.80;;;;;;2023851;29;20495;-71
2021/03/27 02:15:56;;;;;;;20.33;14.63;;;8.00;83.50;;;;;;2021626;29;20035;-72
2021/03/27 02:17:02;;;;;;;22.13;14.77;;;8.00;83.20;;;;;;2015287;29;20049;-71
2021/03/27 02:18:13;;;;;;;19.77;13.93;;;8.10;83.00;;;;;;2015599;29;20121;-71
2021/03/27 02:19:33;;;;;;;18.30;13.18;;;8.10;82.70;;;;;;2015365;29;20111;-70
2021/03/27 02:20:58;;;;;;;20.60;14.10;;;8.10;82.60;;;;;;2015035;29;20025;-69
2021/03/27 02:22:20;;;;;;;20.50;14.38;;;8.10;82.50;;;;;;2015248;29;20389;-70
2021/03/27 02:23:33;;;;;;;20.75;13.57;;;8.20;82.40;;;;;;2015643;29;20124;-70
2021/03/27 02:24:37;;;;;;;22.15;14.15;;;8.20;82.80;;;;;;2014920;29;20032;-70
2021/03/27 02:26:12;;;;;;;19.30;13.38;;;8.20;83.10;;;;;;2007718;29;20041;-69
2021/03/27 02:27:22;;;;;;;21.05;14.30;;;8.20;83.50;;;;;;2015558;29;20447;-72
2021/03/27 02:28:56;;;;;;;21.90;15.20;;;8.20;84.00;;;;;;2015891;29;20571;-70
2021/03/27 02:30:18;;;;;;;22.30;15.55;;;8.30;84.80;;;;;;2022978;29;20464;-70
2021/03/27 02:31:33;;;;;;;21.67;14.55;;;8.30;84.80;;;;;;2020697;29;20025;-70
2021/03/27 02:32:56;;;;;;;21.38;14.57;;;8.30;84.60;;;;;;2015612;29;20064;-71
2021/03/27 02:34:09;;;;;;;20.25;14.15;;;8.30;84.50;;;;;;2010736;29;20037;-71
2021/03/27 02:35:36;;;;;;;19.40;13.23;;;8.20;84.20;;;;;;2015396;29;20029;-69
2021/03/27 02:36:43;;;;;;;19.08;13.63;;;8.30;83.70;;;;;;2015709;29;20444;-70
2021/03/27 02:38:08;;;;;;;18.20;12.88;;;8.30;83.30;;;;;;2016232;29;20433;-70
2021/03/27 02:39:40;;;;;;;19.30;12.88;;;8.30;82.90;;;;;;2016040;29;20481;-70
2021/03/27 02:40:46;;;;;;;22.35;14.88;;;8.30;82.40;;;;;;2015898;29;20041;-70
2021/03/27 02:42:16;;;;;;;24.17;15.48;;;8.30;82.10;;;;;;2016150;29;20033;-70
2021/03/27 02:43:27;;;;;;;22.83;15.48;;;8.30;81.60;;;;;;2016017;29;20033;-69
2021/03/27 02:44:46;;;;;;;23.55;16.40;;;8.40;81.50;;;;;;2015123;29;20041;-71
2021/03/27 02:46:14;;;;;;;22.92;16.23;;;8.30;81.40;;;;;;2015529;29;20034;-69
2021/03/27 02:47:36;;;;;;;23.65;15.75;;;8.30;81.60;;;;;;2015804;29;20492;-70
2021/03/27 02:48:53;;;;;;;20.38;14.30;;;8.30;81.70;;;;;;2015641;29;20041;-69
2021/03/27 02:50:03;;;;;;;21.13;14.60;;;8.30;81.80;;;;;;2015137;29;20029;-69
2021/03/27 02:51:13;;;;;;;21.80;14.65;;;8.20;81.70;;;;;;2015429;29;20029;-70
2021/03/27 02:52:22;;;;;;;22.50;14.70;;;8.20;81.50;;;;;;2015512;29;20025;-70
2021/03/27 02:53:42;;;;;;;22.90;15.55;;;8.20;81.30;;;;;;2015542;29;20358;-69
2021/03/27 02:55:04;;;;;;;23.52;16.60;;;8.20;81.30;;;;;;2015521;29;20029;-70
2021/03/27 02:56:12;;;;;;;24.00;15.68;;;8.20;81.20;;;;;;2015549;29;20503;-70
2021/03/27 02:57:40;;;;;;;21.40;14.77;;;8.20;81.50;;;;;;2015477;29;20048;-70
2021/03/27 02:58:55;;;;;;;25.63;17.40;;;8.20;81.60;;;;;;2015615;29;20045;-70
2021/03/27 03:00:07;;;;;;;25.73;16.85;;;8.20;81.70;;;;;;2015506;29;20145;-70
2021/03/27 03:01:23;;;;;;;28.08;18.38;;;8.20;81.60;;;;;;2015516;29;20033;-70
2021/03/27 03:02:40;;;;;;;31.42;19.33;;;8.10;81.60;;;;;;2014797;29;20041;-70
2021/03/27 03:04:10;;;;;;;28.45;18.33;;;8.10;81.30;;;;;;2015026;29;20117;-70
2021/03/27 03:05:27;;;;;;;29.75;18.50;;;8.10;81.30;;;;;;2017939;29;20135;-69
2021/03/27 03:06:42;;;;;;;28.05;17.42;;;8.10;81.50;;;;;;2020798;29;20033;-70
2021/03/27 03:08:07;;;;;;;28.90;18.90;;;8.10;81.40;;;;;;2015553;29;20037;-70
2021/03/27 03:09:27;;;;;;;31.70;19.60;;;8.10;81.30;;;;;;2015001;29;20059;-69
2021/03/27 03:10:37;;;;;;;35.75;20.40;;;8.20;81.20;;;;;;2015432;29;20417;-70
2021/03/27 03:11:45;;;;;;;32.05;19.45;;;8.20;81.40;;;;;;2015333;29;20033;-70
2021/03/27 03:13:15;;;;;;;30.35;17.98;;;8.20;81.20;;;;;;2015390;29;20037;-69
2021/03/27 03:14:31;;;;;;;27.90;18.10;;;8.20;81.10;;;;;;2015417;29;20029;-70
2021/03/27 03:15:58;;;;;;;29.00;17.33;;;8.20;81.00;;;;;;2015518;29;20033;-69
2021/03/27 03:17:26;;;;;;;28.85;18.42;;;8.20;80.90;;;;;;2015471;29;20029;-70
2021/03/27 03:18:57;;;;;;;29.52;18.27;;;8.30;80.70;;;;;;2015270;29;20527;-70
2021/03/27 03:20:21;;;;;;;27.33;17.33;;;8.30;80.60;;;;;;2015525;29;20115;-70
2021/03/27 03:21:47;;;;;;;29.63;18.30;;;8.30;80.50;;;;;;2016094;29;20045;-70
2021/03/27 03:23:10;;;;;;;27.20;17.77;;;8.30;80.50;;;;;;2023442;29;20044;-70
2021/03/27 03:24:40;;;;;;;28.50;18.15;;;8.40;80.30;;;;;;2021173;29;20037;-70
2021/03/27 03:26:06;;;;;;;29.23;18.45;;;8.40;80.30;;;;;;2016677;29;20512;-70
2021/03/27 03:27:12;;;;;;;27.25;17.73;;;8.40;80.10;;;;;;2016714;29;20048;-70
2021/03/27 03:28:39;;;;;;;25.17;16.63;;;8.40;80.10;;;;;;2016493;29;20044;-70
2021/03/27 03:29:56;;;;;;;28.58;17.38;;;8.40;79.90;;;;;;2020400;28;20087;-70
2021/03/27 03:31:37;;;;;;;26.48;16.73;;;8.40;79.80;;;;;;2021780;29;20029;-70
2021/03/27 03:33:07;;;;;;;24.33;16.27;;;8.40;79.70;;;;;;2015745;29;20083;-70
2021/03/27 03:34:12;;;;;;;24.20;15.85;;;8.40;79.80;;;;;;2016546;29;20040;-70
2021/03/27 03:35:40;;;;;;;23.10;15.30;;;8.40;79.90;;;;;;2016608;29;20051;-70
2021/03/27 03:36:49;;;;;;;22.50;15.02;;;8.40;80.20;;;;;;2016632;29;20044;-70
2021/03/27 03:38:00;;;;;;;22.92;14.48;;;8.40;80.30;;;;;;2015989;29;20043;-70
2021/03/27 03:39:19;;;;;;;23.35;14.82;;;8.40;80.40;;;;;;2015664;29;20033;-70
2021/03/27 03:41:01;;;;;;;22.63;14.52;;;8.40;80.50;;;;;;2016584;29;20029;-70
2021/03/27 03:42:27;;;;;;;21.48;14.13;;;8.40;80.50;;;;;;2016575;29;20025;-70
2021/03/27 03:43:49;;;;;;;20.55;13.63;;;8.40;80.60;;;;;;2016613;29;20025;-69
2021/03/27 03:45:01;;;;;;;20.23;13.90;;;8.40;80.50;;;;;;2016476;29;20056;-70
2021/03/27 03:46:05;;;;;;;18.77;13.23;;;8.40;80.50;;;;;;2016693;29;20099;-70
2021/03/27 03:47:18;;;;;;;20.15;12.82;;;8.40;80.30;;;;;;2016539;29;20060;-70
2021/03/27 03:49:10;;;;;;;20.33;13.02;;;8.40;80.30;;;;;;2016448;29;20037;-70
2021/03/27 03:50:27;;;;;;;19.27;12.70;;;8.40;80.10;;;;;;2015285;29;20053;-70
2021/03/27 03:51:45;;;;;;;19.95;13.40;;;8.40;80.10;;;;;;2021378;29;20124;-70
2021/03/27 03:53:00;;;;;;;18.27;12.88;;;8.40;80.20;;;;;;2015844;29;20033;-70
2021/03/27 03:54:11;;;;;;;18.27;12.55;;;8.40;80.40;;;;;;2016077;29;20448;-70
2021/03/27 03:55:38;;;;;;;21.63;13.95;;;8.30;80.50;;;;;;2016492;29;20507;-70
2021/03/27 03:56:59;;;;;;;20.95;14.02;;;8.30;80.50;;;;;;2016466;29;20029;-70
2021/03/27 03:58:17;;;;;;;22.90;15.05;;;8.20;81.00;;;;;;2016368;29;20025;-69
2021/03/27 03:59:37;;;;;;;22.98;14.52;;;8.20;81.10;;;;;;2016154;29;20619;-69
2021/03/27 04:00:51;;;;;;;26.80;16.27;;;8.20;81.30;;;;;;2016390;29;20030;-70
2021/03/27 04:02:01;;;;;;;24.77;16.55;;;8.20;81.40;;;;;;2016390;29;20286;-70
2021/03/27 04:03:39;;;;;;;24.13;15.65;;;8.20;81.40;;;;;;2016367;29;20033;-70
2021/03/27 04:04:51;;;;;;;24.52;15.40;;;8.20;81.70;;;;;;2016377;29;20033;-70
2021/03/27 04:06:00;;;;;;;28.42;17.42;;;8.10;81.70;;;;;;2015869;29;20095;-70
2021/03/27 04:07:05;;;;;;;25.50;16.30;;;8.10;81.70;;;;;;2015918;29;20523;-70
2021/03/27 04:08:27;;;;;;;24.35;16.08;;;8.20;81.60;;;;;;2016402;29;20123;-70
2021/03/27 04:09:43;;;;;;;23.65;15.20;;;8.20;81.50;;;;;;2023275;29;20041;-70
2021/03/27 04:10:48;;;;;;;24.85;15.68;;;8.20;82.20;;;;;;2021741;29;20039;-70
2021/03/27 04:12:30;;;;;;;24.17;15.60;;;8.20;81.30;;;;;;2016438;29;20041;-70
2021/03/27 04:13:52;;;;;;;24.05;15.38;;;8.30;81.00;;;;;;2016185;29;20045;-70
2021/03/27 04:15:02;;;;;;;26.33;16.00;;;8.30;81.00;;;;;;2016427;29;20103;-70
2021/03/27 04:16:24;;;;;;;24.95;15.70;;;8.30;80.90;;;;;;2016533;29;20021;-70
2021/03/27 04:18:02;;;;;;;24.65;15.57;;;8.40;80.70;;;;;;2016459;29;20090;-70
2021/03/27 04:19:19;;;;;;;24.17;15.27;;;8.40;80.60;;;;;;2015327;29;20045;-70
2021/03/27 04:20:29;;;;;;;22.45;14.52;;;8.40;80.40;;;;;;2016382;29;20401;-70
2021/03/27 04:21:39;;;;;;;23.30;14.30;;;8.40;80.20;;;;;;2015654;29;20096;-70
2021/03/27 04:23:05;;;;;;;23.02;14.63;;;8.40;80.10;;;;;;2015996;29;20049;-71
2021/03/27 04:24:28;;;;;;;29.05;17.88;;;8.40;80.20;;;;;;2015208;29;20044;-70
2021/03/27 04:25:38;;;;;;;28.10;16.95;;;8.50;80.40;;;;;;2016397;29;20055;-70
2021/03/27 04:26:52;;;;;;;27.88;16.80;;;8.50;80.20;;;;;;2016327;29;20497;-70
2021/03/27 04:28:02;;;;;;;25.70;15.45;;;8.50;79.90;;;;;;2015702;29;20676;-70
2021/03/27 04:29:46;;;;;;;25.38;15.93;;;8.60;79.80;;;;;;2015493;29;20104;-70
2021/03/27 04:30:50;;;;;;;26.13;15.13;;;8.60;79.70;;;;;;2016237;29;20033;-70
2021/03/27 04:32:25;;;;;;;26.17;15.73;;;8.60;79.60;;;;;;2016388;29;20485;-70
2021/03/27 04:34:07;;;;;;;28.05;16.80;;;8.60;79.40;;;;;;2016328;29;20093;-70
2021/03/27 04:35:41;;;;;;;31.67;18.60;;;8.70;79.40;;;;;;2015453;29;20033;-70
2021/03/27 04:37:03;;;;;;;30.80;16.90;;;8.80;79.20;;;;;;2016411;29;20095;-70
2021/03/27 04:38:24;;;;;;;28.55;16.65;;;8.80;78.70;;;;;;2015636;29;20064;-70
2021/03/27 04:39:27;;;;;;;27.13;16.65;;;8.80;78.50;;;;;;2010114;29;20057;-70
2021/03/27 04:40:34;;;;;;;28.02;16.70;;;8.90;78.20;;;;;;2015690;29;20067;-70
2021/03/27 04:41:40;;;;;;;25.83;15.73;;;8.90;78.00;;;;;;2016507;29;20124;-70
2021/03/27 04:43:00;;;;;;;24.35;15.65;;;8.80;78.00;;;;;;2016566;29;20055;-70
2021/03/27 04:44:20;;;;;;;27.15;16.17;;;8.80;78.10;;;;;;2015782;29;20438;-70
2021/03/27 04:45:31;;;;;;;27.80;16.67;;;8.80;78.60;;;;;;2015953;29;20037;-70
2021/03/27 04:46:47;;;;;;;26.90;16.17;;;8.70;78.70;;;;;;2016342;29;20057;-70
2021/03/27 04:48:15;;;;;;;26.73;16.63;;;8.70;78.80;;;;;;2016414;29;20525;-70
2021/03/27 04:49:27;;;;;;;27.25;16.65;;;8.60;78.70;;;;;;2014729;28;20048;-71
2021/03/27 04:50:52;;;;;;;29.48;16.88;;;8.60;79.00;;;;;;2015631;29;20103;-70
2021/03/27 04:52:07;;;;;;;23.85;15.85;;;8.60;79.40;;;;;;2015852;29;20087;-70
2021/03/27 04:53:26;;;;;;;28.25;17.27;;;8.50;79.40;;;;;;2016357;29;20520;-71
2021/03/27 04:54:38;;;;;;;29.10;17.63;;;8.50;79.70;;;;;;2016239;29;20049;-70
2021/03/27 04:55:57;;;;;;;26.13;16.35;;;8.50;79.70;;;;;;2016041;29;20030;-70
2021/03/27 04:57:12;;;;;;;25.85;15.75;;;8.40;79.70;;;;;;2016117;29;20430;-70
2021/03/27 04:58:26;;;;;;;26.77;15.70;;;8.40;79.90;;;;;;2015271;29;20033;-70
2021/03/27 04:59:45;;;;;;;25.63;16.17;;;8.40;79.90;;;;;;2015577;29;20436;-70
2021/03/27 05:00:55;;;;;;;23.15;15.50;;;8.40;80.10;;;;;;2016133;29;20096;-70
2021/03/27 05:01:58;;;;;;;23.08;15.35;;;8.40;80.10;;;;;;2016119;29;20029;-70
2021/03/27 05:03:18;;;;;;;23.30;14.95;;;8.40;80.70;;;;;;2016323;29;20044;-70
2021/03/27 05:04:35;;;;;;;25.33;15.57;;;8.40;80.10;;;;;;2016107;29;20039;-70
2021/03/27 05:05:53;;;;;;;29.15;16.70;;;8.40;80.60;;;;;;2015504;29;20064;-70
2021/03/27 05:06:59;;;;;;;25.73;16.20;;;8.40;80.60;;;;;;2015681;29;20025;-70
2021/03/27 05:08:08;;;;;;;24.52;15.73;;;8.40;80.50;;;;;;2015459;29;20482;-70
2021/03/27 05:09:41;;;;;;;25.65;15.80;;;8.40;80.50;;;;;;2008364;29;20164;-70
2021/03/27 05:11:04;;;;;;;24.15;15.20;;;8.40;80.50;;;;;;2015767;29;20048;-70
2021/03/27 05:12:16;;;;;;;21.77;14.68;;;8.30;80.60;;;;;;2016110;29;20499;-71
2021/03/27 05:13:38;;;;;;;24.83;15.43;;;8.40;80.90;;;;;;2015437;29;20037;-71
2021/03/27 05:15:05;;;;;;;23.45;15.10;;;8.40;81.00;;;;;;2010327;29;20033;-71
2021/03/27 05:16:19;;;;;;;25.20;16.02;;;8.40;81.10;;;;;;2015649;29;20037;-70
2021/03/27 05:17:45;;;;;;;23.48;15.40;;;8.40;81.00;;;;;;2016177;29;20049;-70
2021/03/27 05:18:51;;;;;;;24.98;15.50;;;8.50;81.00;;;;;;2014746;29;20164;-70
2021/03/27 05:20:15;;;;;;;31.02;18.38;;;8.50;81.10;;;;;;2015911;29;20025;-70
2021/03/27 05:21:37;;;;;;;25.58;16.70;;;8.50;80.70;;;;;;2015499;29;20037;-70
2021/03/27 05:22:45;;;;;;;28.25;17.35;;;8.60;80.60;;;;;;2015768;29;20044;-70
2021/03/27 05:23:53;;;;;;;27.92;17.95;;;8.60;80.60;;;;;;2016143;29;20429;-70
2021/03/27 05:25:20;;;;;;;30.23;18.23;;;8.70;80.50;;;;;;2015358;29;20039;-70
2021/03/27 05:26:36;;;;;;;27.63;17.73;;;8.80;80.60;;;;;;2015674;29;20048;-70
2021/03/27 05:28:07;;;;;;;28.38;16.95;;;8.80;80.10;;;;;;2023017;29;20485;-70
2021/03/27 05:29:38;;;;;;;26.55;17.38;;;8.90;80.20;;;;;;2046168;28;20059;-70
2021/03/27 05:30:47;;;;;;;26.10;16.92;;;9.00;79.80;;;;;;2016019;29;20025;-70
2021/03/27 05:32:03;;;;;;;25.42;16.60;;;9.00;79.40;;;;;;2015982;29;20029;-70
2021/03/27 05:33:28;;;;;;;23.48;15.68;;;9.10;79.30;;;;;;2015221;29;20493;-71
2021/03/27 05:34:53;;;;;;;23.83;15.35;;;9.20;79.00;;;;;;2015589;29;20098;-70
2021/03/27 05:35:57;;;;;;;20.90;13.88;;;9.30;78.60;;;;;;2015476;29;20382;-70
2021/03/27 05:37:18;;;;;;;19.45;13.57;;;9.30;78.20;;;;;;2016084;29;20026;-70
2021/03/27 05:38:34;;;;;;;27.48;17.33;;;9.40;78.00;;;;;;2015908;29;20128;-70
2021/03/27 05:39:41;;;;;;;26.77;17.08;;;9.40;77.80;;;;;;2015575;29;20195;-70
2021/03/27 05:40:57;;;;;;;27.73;17.77;;;9.50;77.70;;;;;;2016021;29;20092;-70
2021/03/27 05:42:16;;;;;;;29.70;18.73;;;9.50;77.30;;;;;;2015881;29;20345;-70
2021/03/27 05:43:44;;;;;;;24.73;16.52;;;9.60;77.10;;;;;;2015243;29;20037;-70
2021/03/27 05:45:03;;;;;;;28.02;18.02;;;9.70;76.90;;;;;;2015949;29;20857;-70
2021/03/27 05:46:41;;;;;;;29.05;17.13;;;9.70;76.40;;;;;;2015232;29;20045;-70
2021/03/27 05:48:15;;;;;;;31.55;18.20;;;9.70;76.20;;;;;;2015555;29;20453;-70
2021/03/27 05:49:41;;;;;;;29.50;18.13;;;9.80;76.00;;;;;;2014966;29;20033;-70
2021/03/27 05:51:00;;;;;;;33.20;20.40;;;9.80;76.00;;;;;;2015366;29;20033;-72
2021/03/27 05:52:25;;;;;;;34.17;21.02;;;9.80;75.40;;;;;;2015754;29;20035;-71
2021/03/27 05:53:50;;;;;;;37.17;25.10;;;9.70;75.50;;;;;;2015841;29;20029;-70
2021/03/27 05:55:16;;;;;;;34.63;22.48;;;9.80;75.30;;;;;;2015288;29;20183;-69
2021/03/27 05:56:57;;;;;;;33.15;21.60;;;9.70;75.30;;;;;;2015399;29;20025;-70
2021/03/27 05:58:25;;;;;;;30.17;20.13;;;9.70;75.50;;;;;;2015749;29;20476;-70
2021/03/27 05:59:49;;;;;;;28.00;18.77;;;9.70;75.50;;;;;;2014772;28;20037;-70
2021/03/27 06:01:17;;;;;;;28.70;18.58;;;9.70;75.50;;;;;;2010369;29;20037;-70
2021/03/27 06:02:36;;;;;;;29.00;18.48;;;9.70;75.70;;;;;;2022794;29;20024;-70
2021/03/27 06:03:55;;;;;;;27.45;17.70;;;9.70;75.70;;;;;;2020724;29;20475;-70
2021/03/27 06:05:17;;;;;;;31.30;19.15;;;9.60;75.80;;;;;;2015708;29;20029;-70
2021/03/27 06:06:49;;;;;;;34.17;20.52;;;9.70;75.60;;;;;;2015704;29;20025;-70
2021/03/27 06:08:08;;;;;;;31.25;19.20;;;9.70;75.30;;;;;;2015674;29;20389;-69
2021/03/27 06:09:31;;;;;;;31.20;20.00;;;9.70;75.30;;;;;;2014744;28;20119;-70
2021/03/27 06:10:44;;;;;;;30.92;19.80;;;9.80;75.30;;;;;;2015339;29;20033;-70
2021/03/27 06:11:56;;;;;;;27.35;18.08;;;9.80;75.70;;;;;;2014910;29;20132;-70
2021/03/27 06:13:19;;;;;;;27.92;18.48;;;9.90;75.50;;;;;;2015335;29;20029;-70
2021/03/27 06:14:57;;;;;;;31.52;19.20;;;10.00;75.20;;;;;;2015579;29;20037;-70
2021/03/27 06:16:03;;;;;;;28.00;18.30;;;10.00;74.70;;;;;;2014903;29;20033;-70
2021/03/27 06:17:38;;;;;;;28.98;18.48;;;10.10;74.40;;;;;;2015109;29;20135;-70
2021/03/27 06:19:08;;;;;;;27.52;18.25;;;10.20;74.30;;;;;;2015319;29;20067;-70
2021/03/27 06:20:41;;;;;;;28.45;19.17;;;10.20;74.00;;;;;;2015720;29;20028;-70
2021/03/27 06:22:15;;;;;;;29.50;18.92;;;10.20;73.70;;;;;;2015635;29;20491;-70
2021/03/27 06:23:28;;;;;;;28.23;18.10;;;10.30;73.40;;;;;;2015651;29;20033;-71
2021/03/27 06:25:01;;;;;;;29.42;17.77;;;10.30;73.60;;;;;;2015071;29;20033;-70
2021/03/27 06:26:20;;;;;;;32.65;20.65;;;10.30;73.50;;;;;;2015314;29;20108;-70
2021/03/27 06:27:46;;;;;;;29.63;19.40;;;10.30;73.40;;;;;;2015595;29;20056;-70
2021/03/27 06:29:09;;;;;;;32.53;20.75;;;10.30;73.40;;;;;;2015511;29;20096;-70
2021/03/27 06:30:41;;;;;;;27.48;18.52;;;10.30;73.80;;;;;;2015494;29;20132;-70
2021/03/27 06:32:06;;;;;;;26.67;17.83;;;10.40;73.80;;;;;;2015796;29;20041;-70
2021/03/27 06:33:32;;;;;;;26.23;17.08;;;10.50;73.70;;;;;;2015837;29;20029;-70
2021/03/27 06:35:09;;;;;;;24.88;16.38;;;10.60;73.50;;;;;;2022745;29;20029;-70
2021/03/27 06:36:23;;;;;;;32.05;19.60;;;10.70;73.00;;;;;;2018575;29;20040;-70
2021/03/27 06:37:50;;;;;;;28.85;19.05;;;10.80;72.20;;;;;;2015735;29;20464;-70
2021/03/27 06:39:13;;;;;;;28.63;17.65;;;10.90;71.30;;;;;;2015445;29;20033;-70
2021/03/27 06:40:28;;;;;;;28.98;18.58;;;10.90;71.30;;;;;;2015607;29;20227;-70
2021/03/27 06:41:54;;;;;;;34.85;20.58;;;10.90;71.50;;;;;;2014937;29;20549;-70
2021/03/27 06:43:28;;;;;;;32.78;19.27;;;10.90;71.30;;;;;;2010403;29;20024;-70